createdAt,value
2019-01-27T00:00:56.632Z,4.14
2019-01-27T00:01:56.816Z,4.12
2019-01-27T00:02:57.112Z,4.10
2019-01-27T00:03:57.172Z,4.18
2019-01-27T00:04:57.331Z,4.16
2019-01-27T00:05:57.523Z,4.03
2019-01-27T00:06:57.683Z,4.07
2019-01-27T00:07:57.877Z,4.09
2019-01-27T00:08:58.049Z,4.12
2019-01-27T00:09:58.227Z,4.10
2019-01-27T00:10:58.496Z,4.12
2019-01-27T00:11:58.587Z,4.13
2019-01-27T00:12:58.779Z,4.04
2019-01-27T00:13:58.976Z,4.09
2019-01-27T00:14:59.104Z,4.04
2019-01-27T00:15:59.315Z,4.07
2019-01-27T00:16:59.488Z,4.07
2019-01-27T00:17:59.672Z,4.07
2019-01-27T00:18:59.911Z,4.06
2019-01-27T00:19:59.970Z,4.03
2019-01-27T00:21:00.175Z,4.04
2019-01-27T00:22:00.369Z,4.04
2019-01-27T00:23:00.554Z,4.12
2019-01-27T00:24:00.738Z,4.02
2019-01-27T00:25:00.904Z,4.14
2019-01-27T00:26:01.062Z,4.10
2019-01-27T00:27:01.267Z,4.10
2019-01-27T00:28:01.459Z,4.04
2019-01-27T00:29:01.622Z,4.06
2019-01-27T00:30:01.791Z,4.04
2019-01-27T00:31:01.969Z,4.09
2019-01-27T00:32:02.161Z,4.06
2019-01-27T00:33:02.341Z,4.10
2019-01-27T00:34:02.532Z,4.07
2019-01-27T00:35:02.940Z,4.13
2019-01-27T00:36:02.971Z,4.13
2019-01-27T00:37:03.060Z,4.03
2019-01-27T00:38:03.253Z,4.10
2019-01-27T00:39:03.438Z,4.07
2019-01-27T00:40:03.596Z,4.06
2019-01-27T00:41:03.773Z,4.13
2019-01-27T00:42:03.967Z,4.06
2019-01-27T00:43:04.141Z,4.03
2019-01-27T00:44:04.455Z,4.03
2019-01-27T00:45:04.498Z,4.04
2019-01-27T00:46:04.680Z,4.07
2019-01-27T00:47:04.858Z,4.07
2019-01-27T00:48:05.035Z,4.02
2019-01-27T00:49:05.241Z,4.02
2019-01-27T00:50:05.402Z,4.10
2019-01-27T00:51:05.576Z,4.07
2019-01-27T00:52:05.817Z,4.10
2019-01-27T00:53:05.917Z,4.07
2019-01-27T00:54:06.114Z,4.04
2019-01-27T00:55:06.270Z,4.04
2019-01-27T00:56:06.450Z,4.06
2019-01-27T00:57:06.659Z,4.10
2019-01-27T00:58:06.810Z,4.09
2019-01-27T00:59:06.991Z,4.09
2019-01-27T01:00:07.182Z,4.00
2019-01-27T01:01:07.310Z,3.95
2019-01-27T01:02:07.533Z,4.00
2019-01-27T01:03:07.668Z,3.99
2019-01-27T01:04:07.859Z,4.00
2019-01-27T01:05:08.007Z,4.06
2019-01-27T01:06:08.211Z,4.06
2019-01-27T01:07:08.419Z,4.09
2019-01-27T01:08:08.590Z,4.00
2019-01-27T01:09:08.800Z,3.96
2019-01-27T01:10:08.899Z,4.02
2019-01-27T01:11:09.090Z,3.89
2019-01-27T01:12:09.299Z,3.96
2019-01-27T01:13:09.441Z,3.96
2019-01-27T01:14:09.636Z,3.95
2019-01-27T01:15:09.833Z,3.96
2019-01-27T01:16:09.974Z,4.04
2019-01-27T01:17:10.304Z,4.03
2019-01-27T01:18:10.322Z,4.03
2019-01-27T01:19:10.515Z,3.95
2019-01-27T01:20:10.671Z,3.99
2019-01-27T01:21:10.832Z,3.99
2019-01-27T01:22:11.061Z,3.96
2019-01-27T01:23:11.207Z,3.96
2019-01-27T01:24:11.410Z,3.99
2019-01-27T01:25:11.646Z,4.06
2019-01-27T01:26:11.712Z,4.02
2019-01-27T01:27:11.947Z,4.00
2019-01-27T01:28:12.095Z,3.99
2019-01-27T01:29:12.273Z,3.95
2019-01-27T01:30:12.451Z,4.03
2019-01-27T01:31:12.625Z,4.09
2019-01-27T01:32:12.813Z,3.99
2019-01-27T01:33:13.020Z,3.99
2019-01-27T01:34:13.154Z,3.89
2019-01-27T01:35:13.321Z,3.92
2019-01-27T01:36:13.498Z,3.89
2019-01-27T01:37:13.710Z,3.94
2019-01-27T01:38:13.830Z,3.86
2019-01-27T01:39:14.022Z,3.84
2019-01-27T01:40:14.212Z,3.74
2019-01-27T01:41:14.434Z,3.77
2019-01-27T01:42:14.624Z,3.71
2019-01-27T01:43:14.734Z,3.76
2019-01-27T01:44:14.911Z,3.73
2019-01-27T01:45:15.120Z,3.70
2019-01-27T01:46:15.294Z,3.68
2019-01-27T01:47:15.493Z,3.63
2019-01-27T01:48:15.657Z,3.67
2019-01-27T01:49:15.821Z,3.70
2019-01-27T01:50:16.143Z,3.76
2019-01-27T01:51:16.209Z,3.71
2019-01-27T01:52:16.417Z,3.77
2019-01-27T01:53:16.561Z,3.76
2019-01-27T01:54:16.725Z,3.73
2019-01-27T01:55:16.934Z,3.67
2019-01-27T01:56:17.107Z,3.76
2019-01-27T01:57:17.309Z,3.70
2019-01-27T01:58:17.574Z,3.74
2019-01-27T01:59:17.619Z,3.74
2019-01-27T02:00:17.833Z,3.70
2019-01-27T02:01:17.995Z,3.66
2019-01-27T02:02:18.195Z,3.67
2019-01-27T02:03:18.345Z,3.64
2019-01-27T02:04:18.521Z,3.64
2019-01-27T02:05:18.941Z,3.58
2019-01-27T02:06:18.935Z,3.66
2019-01-27T02:07:19.064Z,3.63
2019-01-27T02:08:19.235Z,3.64
2019-01-27T02:09:19.415Z,3.59
2019-01-27T02:10:19.587Z,3.66
2019-01-27T02:11:19.733Z,3.55
2019-01-27T02:12:19.968Z,3.55
2019-01-27T02:13:20.121Z,3.53
2019-01-27T02:14:20.320Z,3.49
2019-01-27T02:15:20.448Z,3.52
2019-01-27T02:16:20.599Z,3.50
2019-01-27T02:17:20.850Z,3.56
2019-01-27T02:18:20.990Z,3.52
2019-01-27T02:19:21.155Z,3.49
2019-01-27T02:20:21.346Z,3.53
2019-01-27T02:21:21.505Z,3.58
2019-01-27T02:22:21.728Z,3.50
2019-01-27T02:23:21.907Z,3.45
2019-01-27T02:24:22.033Z,3.52
2019-01-27T02:25:22.228Z,3.50
2019-01-27T02:26:22.385Z,3.53
2019-01-27T02:27:22.579Z,3.48
2019-01-27T02:28:22.738Z,3.40
2019-01-27T02:29:22.914Z,3.43
2019-01-27T02:30:23.128Z,3.55
2019-01-27T02:31:23.411Z,3.48
2019-01-27T02:32:23.478Z,3.52
2019-01-27T02:33:23.640Z,3.56
2019-01-27T02:34:23.807Z,3.53
2019-01-27T02:35:24.001Z,3.56
2019-01-27T02:36:24.165Z,3.59
2019-01-27T02:37:24.366Z,3.49
2019-01-27T02:38:24.540Z,3.49
2019-01-27T02:39:24.743Z,3.49
2019-01-27T02:40:24.880Z,3.53
2019-01-27T02:41:25.055Z,3.46
2019-01-27T02:42:25.222Z,3.48
2019-01-27T02:43:25.398Z,3.53
2019-01-27T02:44:25.573Z,3.48
2019-01-27T02:45:25.782Z,3.48
2019-01-27T02:46:25.951Z,3.52
2019-01-27T02:47:26.171Z,3.52
2019-01-27T02:48:26.292Z,3.49
2019-01-27T02:49:26.477Z,3.52
2019-01-27T02:50:26.658Z,3.52
2019-01-27T02:51:26.848Z,3.52
2019-01-27T02:52:27.017Z,3.55
2019-01-27T02:53:27.210Z,3.52
2019-01-27T02:54:27.396Z,3.50
2019-01-27T02:55:27.612Z,3.70
2019-01-27T02:56:27.751Z,3.55
2019-01-27T02:57:27.926Z,3.52
2019-01-27T02:58:28.128Z,3.58
2019-01-27T02:59:28.289Z,3.55
2019-01-27T03:00:28.472Z,3.52
2019-01-27T03:01:28.643Z,3.52
2019-01-27T03:02:28.799Z,3.55
2019-01-27T03:03:29.009Z,3.67
2019-01-27T03:04:29.280Z,3.66
2019-01-27T03:05:29.354Z,3.64
2019-01-27T03:06:29.514Z,3.73
2019-01-27T03:07:29.688Z,3.68
2019-01-27T03:08:29.894Z,3.63
2019-01-27T03:09:30.056Z,3.67
2019-01-27T03:10:30.251Z,3.64
2019-01-27T03:11:30.426Z,3.59
2019-01-27T03:12:30.658Z,3.64
2019-01-27T03:13:30.779Z,3.58
2019-01-27T03:14:30.944Z,3.52
2019-01-27T03:15:31.128Z,3.55
2019-01-27T03:16:31.315Z,3.56
2019-01-27T03:17:31.459Z,3.55
2019-01-27T03:18:31.656Z,3.55
2019-01-27T03:19:31.841Z,3.52
2019-01-27T03:20:32.104Z,3.46
2019-01-27T03:21:32.190Z,3.59
2019-01-27T03:22:32.357Z,3.49
2019-01-27T03:23:32.536Z,3.43
2019-01-27T03:24:32.712Z,3.45
2019-01-27T03:25:32.904Z,3.43
2019-01-27T03:26:33.400Z,3.46
2019-01-27T03:27:33.248Z,3.46
2019-01-27T03:28:33.488Z,3.34
2019-01-27T03:29:33.574Z,3.41
2019-01-27T03:30:33.775Z,3.31
2019-01-27T03:31:33.944Z,3.31
2019-01-27T03:32:34.118Z,3.34
2019-01-27T03:33:34.316Z,3.36
2019-01-27T03:34:34.474Z,3.29
2019-01-27T03:35:34.655Z,3.34
2019-01-27T03:36:34.868Z,3.19
2019-01-27T03:37:35.069Z,3.29
2019-01-27T03:38:45.114Z,3.21
2019-01-27T03:40:04.402Z,3.22
2019-01-27T03:40:35.535Z,3.27
2019-01-27T03:41:35.701Z,3.15
2019-01-27T03:42:35.899Z,3.15
2019-01-27T03:43:36.083Z,3.12
2019-01-27T03:44:36.518Z,3.13
2019-01-27T03:45:36.534Z,3.13
2019-01-27T03:46:36.613Z,3.16
2019-01-27T03:47:36.786Z,3.05
2019-01-27T03:48:36.980Z,3.19
2019-01-27T03:49:37.341Z,3.08
2019-01-27T03:50:37.311Z,3.13
2019-01-27T03:51:37.486Z,3.21
2019-01-27T03:52:37.676Z,3.12
2019-01-27T03:53:37.988Z,3.19
2019-01-27T03:54:38.026Z,3.08
2019-01-27T03:55:38.195Z,3.13
2019-01-27T03:56:38.392Z,3.08
2019-01-27T03:57:38.564Z,3.13
2019-01-27T03:58:38.755Z,3.13
2019-01-27T03:59:38.917Z,3.09
2019-01-27T04:00:53.887Z,3.05
2019-01-27T04:01:39.342Z,3.15
2019-01-27T04:02:39.423Z,3.05
2019-01-27T04:03:39.646Z,3.03
2019-01-27T04:04:39.808Z,3.05
2019-01-27T04:05:39.985Z,3.12
2019-01-27T04:06:40.186Z,3.09
2019-01-27T04:07:40.332Z,3.03
2019-01-27T04:08:40.520Z,3.05
2019-01-27T04:09:40.728Z,3.00
2019-01-27T04:10:40.881Z,3.03
2019-01-27T04:11:41.066Z,2.98
2019-01-27T04:12:41.223Z,2.98
2019-01-27T04:13:41.418Z,2.95
2019-01-27T04:14:41.562Z,2.91
2019-01-27T04:15:41.775Z,2.91
2019-01-27T04:16:41.969Z,2.85
2019-01-27T04:17:42.125Z,2.82
2019-01-27T04:18:42.396Z,2.83
2019-01-27T04:19:42.443Z,2.82
2019-01-27T04:20:42.636Z,2.88
2019-01-27T04:21:42.847Z,2.75
2019-01-27T04:22:42.986Z,2.83
2019-01-27T04:23:43.183Z,2.80
2019-01-27T04:24:43.341Z,2.93
2019-01-27T04:25:43.508Z,2.82
2019-01-27T04:26:43.846Z,2.79
2019-01-27T04:27:43.863Z,2.77
2019-01-27T04:28:44.065Z,2.77
2019-01-27T04:29:44.205Z,2.90
2019-01-27T04:30:44.405Z,2.68
2019-01-27T04:31:44.614Z,2.75
2019-01-27T04:32:44.771Z,2.72
2019-01-27T04:33:44.977Z,2.69
2019-01-27T04:34:45.157Z,2.72
2019-01-27T04:35:45.257Z,2.80
2019-01-27T04:36:45.482Z,2.79
2019-01-27T04:37:45.633Z,2.80
2019-01-27T04:38:45.816Z,2.85
2019-01-27T04:39:45.986Z,2.82
2019-01-27T04:40:46.176Z,2.85
2019-01-27T04:41:46.369Z,2.85
2019-01-27T04:42:46.555Z,2.90
2019-01-27T04:43:46.691Z,2.90
2019-01-27T04:44:46.850Z,2.94
2019-01-27T04:45:47.036Z,2.88
2019-01-27T04:46:47.227Z,2.95
2019-01-27T04:47:47.381Z,2.94
2019-01-27T04:48:47.594Z,2.85
2019-01-27T04:49:47.746Z,2.94
2019-01-27T04:50:47.961Z,2.91
2019-01-27T04:51:48.159Z,2.93
2019-01-27T04:52:48.265Z,2.87
2019-01-27T04:53:48.823Z,2.95
2019-01-27T04:54:48.625Z,2.90
2019-01-27T04:55:48.812Z,2.82
2019-01-27T04:56:49.006Z,2.91
2019-01-27T04:57:49.162Z,2.94
2019-01-27T04:58:49.327Z,2.94
2019-01-27T04:59:49.643Z,2.95
2019-01-27T05:00:49.720Z,2.87
2019-01-27T05:01:49.908Z,3.03
2019-01-27T05:02:50.046Z,2.98
2019-01-27T05:03:50.221Z,2.98
2019-01-27T05:04:50.431Z,2.93
2019-01-27T05:05:50.617Z,2.85
2019-01-27T05:06:50.795Z,2.82
2019-01-27T05:07:51.035Z,2.85
2019-01-27T05:08:51.112Z,2.83
2019-01-27T05:09:51.322Z,2.82
2019-01-27T05:10:51.810Z,2.87
2019-01-27T05:11:51.677Z,2.85
2019-01-27T05:12:51.839Z,2.83
2019-01-27T05:13:52.029Z,2.82
2019-01-27T05:14:52.191Z,2.91
2019-01-27T05:15:52.436Z,2.83
2019-01-27T05:16:52.539Z,2.83
2019-01-27T05:17:52.726Z,2.77
2019-01-27T05:18:52.883Z,2.87
2019-01-27T05:19:53.078Z,2.87
2019-01-27T05:20:53.229Z,2.76
2019-01-27T05:21:53.426Z,2.88
2019-01-27T05:22:53.595Z,2.82
2019-01-27T05:23:54.061Z,2.79
2019-01-27T05:24:53.968Z,2.83
2019-01-27T05:25:54.119Z,2.75
2019-01-27T05:26:54.319Z,2.82
2019-01-27T05:27:54.828Z,2.72
2019-01-27T05:28:54.672Z,2.77
2019-01-27T05:29:54.872Z,2.72
2019-01-27T05:30:55.030Z,2.72
2019-01-27T05:31:55.221Z,2.72
2019-01-27T05:32:55.497Z,2.73
2019-01-27T05:33:55.556Z,2.88
2019-01-27T05:34:55.749Z,2.75
2019-01-27T05:35:55.914Z,2.70
2019-01-27T05:36:56.092Z,2.82
2019-01-27T05:37:56.260Z,2.70
2019-01-27T05:38:56.438Z,2.73
2019-01-27T05:39:56.630Z,2.76
2019-01-27T05:40:56.921Z,2.70
2019-01-27T05:41:56.972Z,2.79
2019-01-27T05:42:57.165Z,2.75
2019-01-27T05:43:57.339Z,2.72
2019-01-27T05:45:00.383Z,2.75
2019-01-27T05:45:57.708Z,2.76
2019-01-27T05:46:57.895Z,2.73
2019-01-27T05:47:58.055Z,2.75
2019-01-27T05:48:58.280Z,2.69
2019-01-27T05:50:02.907Z,2.70
2019-01-27T05:50:58.593Z,2.70
2019-01-27T05:51:58.785Z,2.72
2019-01-27T05:52:58.946Z,2.70
2019-01-27T05:53:59.093Z,2.75
2019-01-27T05:54:59.301Z,2.73
2019-01-27T05:55:59.462Z,2.72
2019-01-27T05:56:59.688Z,2.72
2019-01-27T05:57:59.817Z,2.76
2019-01-27T05:59:00.009Z,2.73
2019-01-27T06:00:00.207Z,2.87
2019-01-27T06:01:00.317Z,2.69
2019-01-27T06:02:00.524Z,2.75
2019-01-27T06:03:00.698Z,2.80
2019-01-27T06:04:00.871Z,2.87
2019-01-27T06:05:01.114Z,2.83
2019-01-27T06:06:01.264Z,2.79
2019-01-27T06:07:01.421Z,2.70
2019-01-27T06:08:01.582Z,2.80
2019-01-27T06:09:01.758Z,2.85
2019-01-27T06:10:01.950Z,2.77
2019-01-27T06:11:02.110Z,2.80
2019-01-27T06:12:02.270Z,2.83
2019-01-27T06:13:02.490Z,2.79
2019-01-27T06:14:02.795Z,2.88
2019-01-27T06:15:02.837Z,2.87
2019-01-27T06:16:02.984Z,2.82
2019-01-27T06:17:03.170Z,2.93
2019-01-27T06:18:03.402Z,2.88
2019-01-27T06:19:03.554Z,2.97
2019-01-27T06:20:03.745Z,2.91
2019-01-27T06:21:03.911Z,2.91
2019-01-27T06:22:04.161Z,2.94
2019-01-27T06:23:04.284Z,2.91
2019-01-27T06:24:04.446Z,2.94
2019-01-27T06:25:04.630Z,2.97
2019-01-27T06:26:04.805Z,2.91
2019-01-27T06:27:04.962Z,2.98
2019-01-27T06:28:05.156Z,2.94
2019-01-27T06:29:05.322Z,2.87
2019-01-27T06:30:05.600Z,2.87
2019-01-27T06:31:05.670Z,2.94
2019-01-27T06:32:05.850Z,2.98
2019-01-27T06:33:06.026Z,2.90
2019-01-27T06:34:06.182Z,2.88
2019-01-27T06:35:06.397Z,2.91
2019-01-27T06:36:06.671Z,2.94
2019-01-27T06:37:06.724Z,2.83
2019-01-27T06:38:06.955Z,2.87
2019-01-27T06:39:07.049Z,2.91
2019-01-27T06:40:07.267Z,2.88
2019-01-27T06:41:07.458Z,2.82
2019-01-27T06:42:07.615Z,2.88
2019-01-27T06:43:07.826Z,2.88
2019-01-27T06:44:07.966Z,2.94
2019-01-27T06:45:08.147Z,2.95
2019-01-27T06:46:08.330Z,2.93
2019-01-27T06:47:08.608Z,2.88
2019-01-27T06:48:08.704Z,2.98
2019-01-27T06:49:08.856Z,2.93
2019-01-27T06:50:09.041Z,2.88
2019-01-27T06:51:09.213Z,2.97
2019-01-27T06:52:10.205Z,2.98
2019-01-27T06:53:09.615Z,2.93
2019-01-27T06:54:09.746Z,2.90
2019-01-27T06:55:10.052Z,2.93
2019-01-27T06:56:10.117Z,3.05
2019-01-27T06:57:10.290Z,3.03
2019-01-27T06:58:10.493Z,2.94
2019-01-27T06:59:10.643Z,2.98
2019-01-27T07:00:11.059Z,2.98
2019-01-27T07:01:10.991Z,2.97
2019-01-27T07:02:11.188Z,3.01
2019-01-27T07:03:11.436Z,3.03
2019-01-27T07:04:11.523Z,3.03
2019-01-27T07:05:11.734Z,3.06
2019-01-27T07:06:11.876Z,3.05
2019-01-27T07:07:12.065Z,3.06
2019-01-27T07:08:12.268Z,3.01
2019-01-27T07:09:12.470Z,3.03
2019-01-27T07:10:12.620Z,3.03
2019-01-27T07:11:12.813Z,3.09
2019-01-27T07:12:13.041Z,3.06
2019-01-27T07:13:13.141Z,2.97
2019-01-27T07:14:13.323Z,3.12
2019-01-27T07:15:13.488Z,2.95
2019-01-27T07:16:13.670Z,3.08
2019-01-27T07:17:13.854Z,3.11
2019-01-27T07:18:14.066Z,3.12
2019-01-27T07:19:14.256Z,3.00
2019-01-27T07:20:14.440Z,3.11
2019-01-27T07:21:14.586Z,3.16
2019-01-27T07:22:14.749Z,3.09
2019-01-27T07:23:14.976Z,3.08
2019-01-27T07:24:15.131Z,3.12
2019-01-27T07:25:15.295Z,3.13
2019-01-27T07:26:15.488Z,3.18
2019-01-27T07:27:15.678Z,3.16
2019-01-27T07:28:15.988Z,3.16
2019-01-27T07:29:16.020Z,3.22
2019-01-27T07:30:16.205Z,3.21
2019-01-27T07:31:16.395Z,3.27
2019-01-27T07:32:16.555Z,3.26
2019-01-27T07:33:16.759Z,3.33
2019-01-27T07:34:16.908Z,3.33
2019-01-27T07:35:17.101Z,3.33
2019-01-27T07:36:17.404Z,3.34
2019-01-27T07:37:17.438Z,3.33
2019-01-27T07:38:17.644Z,3.37
2019-01-27T07:39:17.786Z,3.33
2019-01-27T07:40:17.967Z,3.41
2019-01-27T07:41:18.175Z,3.41
2019-01-27T07:42:18.327Z,3.41
2019-01-27T07:43:18.548Z,3.41
2019-01-27T07:44:18.723Z,3.37
2019-01-27T07:45:18.828Z,3.55
2019-01-27T07:46:19.047Z,3.49
2019-01-27T07:47:19.869Z,3.41
2019-01-27T07:48:19.416Z,3.55
2019-01-27T07:49:19.581Z,3.52
2019-01-27T07:50:19.735Z,3.50
2019-01-27T07:51:19.912Z,3.53
2019-01-27T07:52:20.143Z,3.59
2019-01-27T07:53:20.261Z,3.52
2019-01-27T07:54:20.440Z,3.63
2019-01-27T07:55:20.610Z,3.59
2019-01-27T07:56:20.807Z,3.63
2019-01-27T07:57:20.950Z,3.64
2019-01-27T07:58:21.160Z,3.66
2019-01-27T07:59:21.343Z,3.74
2019-01-27T08:00:21.535Z,3.70
2019-01-27T08:01:21.821Z,3.71
2019-01-27T08:02:21.853Z,3.73
2019-01-27T08:03:22.063Z,3.74
2019-01-27T08:04:22.334Z,3.76
2019-01-27T08:05:22.403Z,3.71
2019-01-27T08:06:22.599Z,3.76
2019-01-27T08:07:22.754Z,3.84
2019-01-27T08:08:22.929Z,3.70
2019-01-27T08:09:23.226Z,3.74
2019-01-27T08:10:23.294Z,3.78
2019-01-27T08:11:23.486Z,3.73
2019-01-27T08:12:23.650Z,3.77
2019-01-27T08:13:23.843Z,3.76
2019-01-27T08:14:24.038Z,3.71
2019-01-27T08:15:24.208Z,3.68
2019-01-27T08:16:24.383Z,3.76
2019-01-27T08:17:24.623Z,3.71
2019-01-27T08:18:24.692Z,3.74
2019-01-27T08:19:24.889Z,3.70
2019-01-27T08:20:25.092Z,3.76
2019-01-27T08:21:25.277Z,3.71
2019-01-27T08:22:25.875Z,3.77
2019-01-27T08:23:25.614Z,3.73
2019-01-27T08:24:25.802Z,3.74
2019-01-27T08:25:26.009Z,3.91
2019-01-27T08:26:26.152Z,3.84
2019-01-27T08:27:26.319Z,3.88
2019-01-27T08:28:26.489Z,3.91
2019-01-27T08:29:26.702Z,3.99
2019-01-27T08:30:26.894Z,3.94
2019-01-27T08:31:27.374Z,4.00
2019-01-27T08:32:27.895Z,3.96
2019-01-27T08:33:27.467Z,3.96
2019-01-27T08:34:27.648Z,4.04
2019-01-27T08:35:27.798Z,4.00
2019-01-27T08:36:27.940Z,4.07
2019-01-27T08:37:28.121Z,4.03
2019-01-27T08:38:28.512Z,4.12
2019-01-27T08:39:28.484Z,4.09
2019-01-27T08:40:28.670Z,4.22
2019-01-27T08:41:28.863Z,4.22
2019-01-27T08:42:29.138Z,4.31
2019-01-27T08:43:29.187Z,4.45
2019-01-27T08:44:29.378Z,4.43
2019-01-27T08:45:29.554Z,4.53
2019-01-27T08:46:29.734Z,4.63
2019-01-27T08:47:29.873Z,4.68
2019-01-27T08:48:30.078Z,4.70
2019-01-27T08:49:30.261Z,4.79
2019-01-27T08:50:30.584Z,4.82
2019-01-27T08:51:30.619Z,4.83
2019-01-27T08:52:30.766Z,4.87
2019-01-27T08:53:30.961Z,4.83
2019-01-27T08:54:31.149Z,4.92
2019-01-27T08:55:31.328Z,4.78
2019-01-27T08:56:31.499Z,4.79
2019-01-27T08:57:31.671Z,4.79
2019-01-27T08:58:31.941Z,4.83
2019-01-27T08:59:32.013Z,4.68
2019-01-27T09:00:32.273Z,4.68
2019-01-27T09:01:32.383Z,4.64
2019-01-27T09:02:32.549Z,4.56
2019-01-27T09:03:32.719Z,4.49
2019-01-27T09:04:33.879Z,4.49
2019-01-27T09:05:33.155Z,4.39
2019-01-27T09:06:33.342Z,4.45
2019-01-27T09:07:33.424Z,4.45
2019-01-27T09:08:33.616Z,4.45
2019-01-27T09:09:33.812Z,4.43
2019-01-27T09:10:34.881Z,4.50
2019-01-27T09:11:34.172Z,4.50
2019-01-27T09:12:34.333Z,4.52
2019-01-27T09:13:34.528Z,4.58
2019-01-27T09:14:34.725Z,4.58
2019-01-27T09:15:35.080Z,4.60
2019-01-27T09:16:35.178Z,4.68
2019-01-27T09:17:35.326Z,4.75
2019-01-27T09:18:35.501Z,4.84
2019-01-27T09:19:35.704Z,4.82
2019-01-27T09:20:35.864Z,4.92
2019-01-27T09:21:36.035Z,5.07
2019-01-27T09:22:36.225Z,5.05
2019-01-27T09:23:36.503Z,5.15
2019-01-27T09:24:36.591Z,5.22
2019-01-27T09:25:36.732Z,5.40
2019-01-27T09:26:36.944Z,5.47
2019-01-27T09:27:37.121Z,5.56
2019-01-27T09:28:37.284Z,5.73
2019-01-27T09:29:37.489Z,5.72
2019-01-27T09:30:37.651Z,5.80
2019-01-27T09:31:37.961Z,5.87
2019-01-27T09:32:38.135Z,5.90
2019-01-27T09:33:38.285Z,5.98
2019-01-27T09:34:38.487Z,5.97
2019-01-27T09:35:38.654Z,5.99
2019-01-27T09:36:38.877Z,6.02
2019-01-27T09:37:39.003Z,6.10
2019-01-27T09:38:39.229Z,6.17
2019-01-27T09:39:39.452Z,6.16
2019-01-27T09:40:39.608Z,6.12
2019-01-27T09:41:39.757Z,6.12
2019-01-27T09:42:39.959Z,6.10
2019-01-27T09:43:40.386Z,6.17
2019-01-27T09:44:40.340Z,6.15
2019-01-27T09:45:40.560Z,6.15
2019-01-27T09:46:40.704Z,6.20
2019-01-27T09:47:40.979Z,6.31
2019-01-27T09:48:41.065Z,6.07
2019-01-27T09:49:41.276Z,6.16
2019-01-27T09:50:41.512Z,6.16
2019-01-27T09:51:41.632Z,6.09
2019-01-27T09:52:41.861Z,6.17
2019-01-27T09:53:42.901Z,6.10
2019-01-27T09:54:42.186Z,6.10
2019-01-27T09:55:42.403Z,6.09
2019-01-27T09:56:42.745Z,6.05
2019-01-27T09:57:42.772Z,6.10
2019-01-27T09:58:42.937Z,6.10
2019-01-27T09:59:43.887Z,6.16
2019-01-27T10:00:43.302Z,6.25
2019-01-27T10:01:43.525Z,6.28
2019-01-27T10:02:43.687Z,6.29
2019-01-27T10:03:43.849Z,6.17
2019-01-27T10:04:44.110Z,6.13
2019-01-27T10:05:44.389Z,6.22
2019-01-27T10:06:44.329Z,6.13
2019-01-27T10:07:44.531Z,6.12
2019-01-27T10:08:44.684Z,6.10
2019-01-27T10:09:44.885Z,6.09
2019-01-27T10:10:45.055Z,6.15
2019-01-27T10:11:45.424Z,6.10
2019-01-27T10:12:45.729Z,6.13
2019-01-27T10:13:45.641Z,6.12
2019-01-27T10:14:45.832Z,6.07
2019-01-27T10:15:46.018Z,6.12
2019-01-27T10:16:46.237Z,6.10
2019-01-27T10:17:46.644Z,6.16
2019-01-27T10:18:46.572Z,6.10
2019-01-27T10:19:46.769Z,6.20
2019-01-27T10:20:46.963Z,6.13
2019-01-27T10:21:47.146Z,6.15
2019-01-27T10:22:47.333Z,6.19
2019-01-27T10:23:47.473Z,6.15
2019-01-27T10:24:47.673Z,6.12
2019-01-27T10:25:47.842Z,6.15
2019-01-27T10:26:48.053Z,6.19
2019-01-27T10:27:48.231Z,6.31
2019-01-27T10:28:48.440Z,6.35
2019-01-27T10:29:48.778Z,6.32
2019-01-27T10:30:48.741Z,6.39
2019-01-27T10:31:48.927Z,6.49
2019-01-27T10:32:49.154Z,6.50
2019-01-27T10:33:49.310Z,6.50
2019-01-27T10:34:49.510Z,6.54
2019-01-27T10:35:49.678Z,6.62
2019-01-27T10:36:49.870Z,6.67
2019-01-27T10:37:50.183Z,6.80
2019-01-27T10:38:50.229Z,6.72
2019-01-27T10:39:50.411Z,6.78
2019-01-27T10:40:50.598Z,6.86
2019-01-27T10:41:50.756Z,6.89
2019-01-27T10:42:51.057Z,6.85
2019-01-27T10:43:51.144Z,7.03
2019-01-27T10:44:51.333Z,6.97
2019-01-27T10:45:51.633Z,6.86
2019-01-27T10:46:51.735Z,6.86
2019-01-27T10:47:51.894Z,6.92
2019-01-27T10:48:52.081Z,6.78
2019-01-27T10:49:52.269Z,6.80
2019-01-27T10:50:52.464Z,6.74
2019-01-27T10:51:52.655Z,6.62
2019-01-27T10:52:52.847Z,6.59
2019-01-27T10:53:53.058Z,6.71
2019-01-27T10:54:53.186Z,6.59
2019-01-27T10:55:53.387Z,6.54
2019-01-27T10:56:53.552Z,6.57
2019-01-27T10:57:53.755Z,6.59
2019-01-27T10:58:53.928Z,6.64
2019-01-27T10:59:54.197Z,6.64
2019-01-27T11:00:54.295Z,6.59
2019-01-27T11:01:54.525Z,6.54
2019-01-27T11:02:54.660Z,6.64
2019-01-27T11:03:54.880Z,6.60
2019-01-27T11:04:55.008Z,6.53
2019-01-27T11:05:55.219Z,6.50
2019-01-27T11:06:55.472Z,6.43
2019-01-27T11:07:55.621Z,6.43
2019-01-27T11:08:55.770Z,6.39
2019-01-27T11:09:57.243Z,6.36
2019-01-27T11:10:56.241Z,6.39
2019-01-27T11:11:56.362Z,6.36
2019-01-27T11:12:56.523Z,6.34
2019-01-27T11:13:56.688Z,6.38
2019-01-27T11:14:56.873Z,6.36
2019-01-27T11:15:57.133Z,6.39
2019-01-27T11:16:57.282Z,6.39
2019-01-27T11:17:57.467Z,6.43
2019-01-27T11:18:57.729Z,6.46
2019-01-27T11:19:57.798Z,6.46
2019-01-27T11:20:57.982Z,6.49
2019-01-27T11:21:58.254Z,6.39
2019-01-27T11:22:58.386Z,6.50
2019-01-27T11:23:58.547Z,6.56
2019-01-27T11:24:58.723Z,6.54
2019-01-27T11:26:00.735Z,6.57
2019-01-27T11:26:59.839Z,6.62
2019-01-27T11:27:59.281Z,6.70
2019-01-27T11:28:59.456Z,6.70
2019-01-27T11:29:59.692Z,6.82
2019-01-27T11:30:59.838Z,6.74
2019-01-27T11:32:00.049Z,6.78
2019-01-27T11:33:00.187Z,6.78
2019-01-27T11:34:00.370Z,6.85
2019-01-27T11:35:00.625Z,6.70
2019-01-27T11:36:00.765Z,6.70
2019-01-27T11:37:00.966Z,6.71
2019-01-27T11:38:01.095Z,6.78
2019-01-27T11:39:01.258Z,6.74
2019-01-27T11:40:01.466Z,6.86
2019-01-27T11:41:01.670Z,6.90
2019-01-27T11:42:01.846Z,6.96
2019-01-27T11:43:02.066Z,7.03
2019-01-27T11:44:02.263Z,7.07
2019-01-27T11:45:02.436Z,7.01
2019-01-27T11:46:02.599Z,7.01
2019-01-27T11:47:02.803Z,7.05
2019-01-27T11:48:02.943Z,7.04
2019-01-27T11:49:03.135Z,7.15
2019-01-27T11:50:03.351Z,7.18
2019-01-27T11:51:03.529Z,7.18
2019-01-27T11:52:03.805Z,7.23
2019-01-27T11:53:07.057Z,7.21
2019-01-27T11:54:04.057Z,7.25
2019-01-27T11:55:04.280Z,7.23
2019-01-27T11:56:04.446Z,7.13
2019-01-27T11:57:04.839Z,7.04
2019-01-27T11:58:04.787Z,6.96
2019-01-27T11:59:04.974Z,6.92
2019-01-27T12:00:05.291Z,6.92
2019-01-27T12:01:05.354Z,6.90
2019-01-27T12:02:05.546Z,6.86
2019-01-27T12:03:05.770Z,6.93
2019-01-27T12:04:05.911Z,6.85
2019-01-27T12:05:06.105Z,6.75
2019-01-27T12:06:06.280Z,6.70
2019-01-27T12:07:06.461Z,6.72
2019-01-27T12:08:06.723Z,6.68
2019-01-27T12:09:06.850Z,6.70
2019-01-27T12:10:07.014Z,6.57
2019-01-27T12:11:07.225Z,6.52
2019-01-27T12:12:07.370Z,6.47
2019-01-27T12:13:07.565Z,6.46
2019-01-27T12:14:07.769Z,6.50
2019-01-27T12:15:07.932Z,6.60
2019-01-27T12:16:08.230Z,6.62
2019-01-27T12:17:08.322Z,6.62
2019-01-27T12:18:08.452Z,6.54
2019-01-27T12:19:08.673Z,6.60
2019-01-27T12:20:08.844Z,6.59
2019-01-27T12:21:09.050Z,6.60
2019-01-27T12:22:09.266Z,6.65
2019-01-27T12:23:09.405Z,6.64
2019-01-27T12:24:09.606Z,6.64
2019-01-27T12:25:09.824Z,6.64
2019-01-27T12:26:09.966Z,6.62
2019-01-27T12:27:10.140Z,6.60
2019-01-27T12:28:10.316Z,6.59
2019-01-27T12:29:10.500Z,6.57
2019-01-27T12:30:10.684Z,6.60
2019-01-27T12:31:11.134Z,6.59
2019-01-27T12:32:11.060Z,6.53
2019-01-27T12:33:11.355Z,6.46
2019-01-27T12:34:11.422Z,6.47
2019-01-27T12:35:11.595Z,6.41
2019-01-27T12:36:11.799Z,6.46
2019-01-27T12:37:11.969Z,6.39
2019-01-27T12:38:12.156Z,6.34
2019-01-27T12:39:12.357Z,6.41
2019-01-27T12:40:12.506Z,6.35
2019-01-27T12:41:12.809Z,6.47
2019-01-27T12:42:12.876Z,6.44
2019-01-27T12:43:13.060Z,6.54
2019-01-27T12:44:13.264Z,6.59
2019-01-27T12:45:13.404Z,6.67
2019-01-27T12:46:13.669Z,6.82
2019-01-27T12:47:13.813Z,6.70
2019-01-27T12:48:14.039Z,6.83
2019-01-27T12:49:14.245Z,6.74
2019-01-27T12:50:14.347Z,6.83
2019-01-27T12:51:14.541Z,6.86
2019-01-27T12:52:14.722Z,7.03
2019-01-27T12:53:15.002Z,7.03
2019-01-27T12:54:15.116Z,7.01
2019-01-27T12:55:15.283Z,7.03
2019-01-27T12:56:15.491Z,6.97
2019-01-27T12:57:15.682Z,6.93
2019-01-27T12:58:15.916Z,6.92
2019-01-27T12:59:16.049Z,6.92
2019-01-27T13:00:16.213Z,6.82
2019-01-27T13:01:16.395Z,6.83
2019-01-27T13:02:16.580Z,6.83
2019-01-27T13:03:16.751Z,6.89
2019-01-27T13:04:16.967Z,6.89
2019-01-27T13:05:17.145Z,6.87
2019-01-27T13:06:17.446Z,6.93
2019-01-27T13:07:17.502Z,6.92
2019-01-27T13:08:17.702Z,6.92
2019-01-27T13:09:17.917Z,6.86
2019-01-27T13:10:18.083Z,6.93
2019-01-27T13:11:18.275Z,6.78
2019-01-27T13:12:18.463Z,6.80
2019-01-27T13:13:18.638Z,6.72
2019-01-27T13:14:18.952Z,6.78
2019-01-27T13:15:19.023Z,6.72
2019-01-27T13:16:19.288Z,6.75
2019-01-27T13:17:19.404Z,6.70
2019-01-27T13:18:20.076Z,6.72
2019-01-27T13:19:19.754Z,6.71
2019-01-27T13:20:19.951Z,6.71
2019-01-27T13:21:20.141Z,6.74